Baltica — SNGH — position and weather

sailwx.info

Track history (hours):
 
Tides and Currents Weather Stations Pressure Air Temp Water Temp Dewpoint Dewpoint Depression Visibility Wind Speed Wind Dir Waves Ship Positions

Oceanographic research ship Baltica (Poland)

Detailed information on ship capabilities available from University of Delaware's Ocean Information Center.

Last reported at 2019-Aug-24 22:00 UTC. Time now 2019-Aug-24 22:15 UTC.
Position N 54°47' E 015°21'.

Length 41 m; beam 9 m.

Type: Fishing. MMSI: 261061000.

Date/timePositionNaut miles runAvg speedWind from/ knotsBaromVisibWave heightAir tempDewpointWater temp
2019-Aug-24 22:00N 54°47' E 015°21'0 0.6
2019-Aug-24 21:30N 54°47' E 015°21'0 0.5
2019-Aug-24 21:01N 54°47' E 015°22'2 4.0
2019-Aug-24 20:31N 54°48' E 015°19'2 3.1
2019-Aug-24 20:00N 54°48' E 015°16'0 0.8
2019-Aug-24 19:30N 54°48' E 015°17'0 0.8
2019-Aug-24 19:00N 54°48' E 015°17'0 0.7
2019-Aug-24 18:30N 54°48' E 015°18'2 3.0
2019-Aug-24 18:00N 54°48' E 015°15'1 1.0
2019-Aug-24 17:30N 54°48' E 015°15'3 5.9
2019-Aug-24 17:00N 54°47' E 015°10'4 7.8
2019-Aug-24 16:30N 54°46' E 015°03'2 3.8
2019-Aug-24 16:00N 54°47' E 015°00'1 1.1
2019-Aug-24 15:30N 54°46' E 015°00'4 8.2
2019-Aug-24 15:01N 54°43' E 015°05'4 8.2
2019-Aug-24 14:29N 54°40' E 015°10'4 4.6
2019-Aug-24 13:41N 54°38' E 015°15'0 1.1
2019-Aug-24 13:31N 54°37' E 015°15'3 5.2
2019-Aug-24 13:01N 54°37' E 015°19'4 8.3
2019-Aug-24 12:30N 54°37' E 015°27'2 3.5
2019-Aug-24 12:00N 54°37' E 015°30'1 2.7
2019-Aug-24 11:30N 54°37' E 015°32'4 8.3
2019-Aug-24 11:01N 54°37' E 015°39'3 5.4
2019-Aug-24 10:30N 54°37' E 015°44'1 1.8
2019-Aug-24 10:01N 54°38' E 015°45'4 8.3
2019-Aug-24 09:30N 54°41' E 015°50'4 8.6
2019-Aug-24 09:00N 54°44' E 015°54'4 7.4
2019-Aug-24 08:30N 54°47' E 015°58'1 1.3
2019-Aug-24 07:53N 54°48' E 015°59'4 7.9
2019-Aug-24 07:26N 54°48' E 015°53'4 6.1
2019-Aug-24 06:45N 54°48' E 015°46'1 2.9
2019-Aug-24 06:30N 54°48' E 015°45'4 4.8
2019-Aug-24 05:40N 54°47' E 015°38'2 8.1
2019-Aug-24 05:25N 54°48' E 015°34'8 3.8
2019-Aug-24 03:16N 54°55' E 015°30'1 3.0
2019-Aug-24 03:00N 54°56' E 015°30'2 3.0
2019-Aug-24 02:28N 54°58' E 015°30'1 1.1
2019-Aug-24 01:59N 54°58' E 015°31'4 7.9
2019-Aug-24 01:30N 54°57' E 015°38'3 6.3
2019-Aug-24 01:00N 54°57' E 015°43'1 2.1
2019-Aug-24 00:28N 54°57' E 015°45'3 5.4
2019-Aug-23 23:59N 54°57' E 015°50'5 8.1
2019-Aug-23 23:26N 54°57' E 015°57'1 3.2
2019-Aug-23 23:00N 54°57' E 015°60'2 2.5
2019-Aug-23 22:20N 54°57' E 016°03'7 8.3
2019-Aug-23 21:33N 54°57' E 016°14'1 2.2
2019-Aug-23 20:59N 54°58' E 016°15'6 8.5
2019-Aug-23 20:17N 55°04' E 016°15'2 7.2
2019-Aug-23 20:00N 55°06' E 016°15'1 3.0
2019-Aug-23 19:31N 55°07' E 016°15'2 3.5
2019-Aug-23 19:00N 55°07' E 016°12'4 8.2
2019-Aug-23 18:30N 55°07' E 016°05'2 3.8
2019-Aug-23 18:00N 55°08' E 016°02'1 1.7
2019-Aug-23 17:30N 55°07' E 016°00'1 2.3
2019-Aug-23 17:00N 55°07' E 015°58'1 1.1
2019-Aug-23 16:30N 55°08' E 015°57'2 4.3
2019-Aug-23 16:00N 55°08' E 015°54'4 7.1
2019-Aug-23 15:30N 55°09' E 015°48'1 2.9
2019-Aug-23 15:00N 55°08' E 015°46'1 1.2
2019-Aug-23 14:27N 55°08' E 015°44'3 6.3
2019-Aug-23 14:00N 55°09' E 015°40'3 6.4
2019-Aug-23 13:30N 55°09' E 015°34'2 4.1
2019-Aug-23 13:00N 55°08' E 015°31'0 0.6
2019-Aug-23 12:30N 55°08' E 015°31'0 0.1
2019-Aug-23 12:00N 55°08' E 015°31'3 6.3
2019-Aug-23 11:30N 55°11' E 015°32'4 7.3
2019-Aug-23 11:00N 55°14' E 015°33'3 5.1
2019-Aug-23 10:30N 55°17' E 015°34'1 2.0
2019-Aug-23 10:00N 55°18' E 015°34'2 3.3
2019-Aug-23 09:30N 55°17' E 015°36'4 7.5
2019-Aug-23 09:00N 55°17' E 015°43'1 3.0
2019-Aug-23 08:30N 55°17' E 015°45'1 1.3
2019-Aug-23 08:01N 55°18' E 015°45'4 7.1
2019-Aug-23 07:30N 55°16' E 015°50'4 7.6
2019-Aug-23 07:00N 55°14' E 015°56'2 3.3
2019-Aug-23 06:25N 55°13' E 015°59'1 2.0
2019-Aug-23 05:59N 55°14' E 015°59'0 0.1
2019-Aug-23 05:26N 55°14' E 015°59'0 0.1
2019-Aug-23 05:00N 55°14' E 015°59'2 4.5
2019-Aug-23 04:30N 55°16' E 016°01'1 3.0
2019-Aug-23 04:00N 55°17' E 016°01'0 0.8
2019-Aug-23 03:30N 55°18' E 016°00'2 4.8
2019-Aug-23 03:00N 55°20' E 016°00'4 7.6
2019-Aug-23 02:30N 55°24' E 016°01'3 5.7
2019-Aug-23 02:00N 55°27' E 016°01'1 2.6
2019-Aug-23 01:30N 55°28' E 015°60'1 2.5
2019-Aug-23 01:01N 55°28' E 015°58'4 8.0
2019-Aug-23 00:30N 55°28' E 015°51'2 4.5
2019-Aug-23 00:01N 55°28' E 015°47'1 2.0
2019-Aug-22 23:31N 55°28' E 015°45'2 4.9
2019-Aug-22 23:00N 55°28' E 015°41'4 7.7
2019-Aug-22 22:31N 55°28' E 015°34'2 3.8
2019-Aug-22 22:01N 55°28' E 015°31'0 0.9
2019-Aug-22 21:30N 55°28' E 015°30'3 6.2
2019-Aug-22 21:01N 55°29' E 015°25'4 8.2
2019-Aug-22 20:31N 55°31' E 015°19'2 4.3
2019-Aug-22 20:00N 55°32' E 015°16'1 1.3
2019-Aug-22 19:31N 55°32' E 015°15'4 8.3
2019-Aug-22 19:00N 55°32' E 015°07'4 8.3
2019-Aug-22 18:30N 55°31' E 014°60'3 5.5
2019-Aug-22 18:00N 55°31' E 014°55'1 1.9
2019-Aug-22 17:31N 55°30' E 014°56'0 0.8
2019-Aug-22 17:01N 55°29' E 014°56'4 7.2
2019-Aug-22 16:31N 55°30' E 014°50'2 4.8
2019-Aug-22 16:01N 55°29' E 014°46'1 2.1
2019-Aug-22 15:29N 55°28' E 014°45'5 6.1
2019-Aug-22 14:36N 55°33' E 014°45'1 7.5
2019-Aug-22 14:29N 55°34' E 014°44'2 4.1
2019-Aug-22 14:00N 55°36' E 014°44'2 2.4
2019-Aug-22 13:09N 55°38' E 014°45'0 0.9
2019-Aug-22 12:56N 55°38' E 014°45'3 6.3
2019-Aug-22 12:25N 55°37' E 014°51'4 7.6
2019-Aug-22 11:54N 55°36' E 014°58'2 1.9
2019-Aug-22 10:54N 55°38' E 015°00'3 7.2
2019-Aug-22 10:31N 55°37' E 015°05'4 7.7
2019-Aug-22 10:01N 55°37' E 015°12'2 3.8
2019-Aug-22 09:31N 55°37' E 015°15'1 1.0
2019-Aug-22 09:00N 55°37' E 015°15'4 7.7
2019-Aug-22 08:31N 55°37' E 015°22'4 7.8
2019-Aug-22 08:01N 55°37' E 015°29'1 1.7
2019-Aug-22 07:27N 55°37' E 015°30'3 6.0
2019-Aug-22 07:01N 55°37' E 015°35'4 7.9
2019-Aug-22 06:30N 55°37' E 015°42'2 4.1
2019-Aug-22 06:00N 55°37' E 015°45'0 0.6
2019-Aug-22 05:31N 55°38' E 015°45'4 7.2
2019-Aug-22 05:00N 55°37' E 015°51'3 6.5
2019-Aug-22 04:31N 55°37' E 015°57'2 3.0
2019-Aug-22 04:00N 55°37' E 015°60'0 0.5
2019-Aug-22 03:31N 55°38' E 016°00'4 7.3
2019-Aug-22 03:01N 55°41' E 015°59'4 7.8
2019-Aug-22 02:31N 55°45' E 015°59'2 4.0
2019-Aug-22 02:00N 55°47' E 015°59'1 1.4
2019-Aug-22 01:30N 55°48' E 016°00'3 5.6
2019-Aug-22 01:01N 55°47' E 016°05'4 7.6
2019-Aug-22 00:30N 55°47' E 016°12'2 3.8
2019-Aug-22 00:01N 55°47' E 016°15'0 0.3
2019-Aug-21 23:31N 55°48' E 016°15'1 2.6
2019-Aug-21 23:00N 55°47' E 016°18'4 7.7
2019-Aug-21 22:31N 55°47' E 016°24'3 5.2
2019-Aug-21 22:00N 55°47' E 016°29'1 1.2
2019-Aug-21 21:30N 55°47' E 016°30'4 8.1
2019-Aug-21 21:00N 55°43' E 016°30'4 8.1
2019-Aug-21 20:30N 55°39' E 016°30'5 3.8
2019-Aug-21 19:15N 55°37' E 016°22'3 8.0
2019-Aug-21 18:55N 55°37' E 016°18'1 3.1
2019-Aug-21 18:30N 55°37' E 016°16'1 2.7
2019-Aug-21 17:58N 55°36' E 016°15'4 7.7
2019-Aug-21 17:27N 55°32' E 016°15'38 2.3
2019-Aug-21 01:00N 55°14' E 017°15'2 4.8
2019-Aug-21 00:31N 55°14' E 017°19'1 1.6
2019-Aug-21 00:00N 55°14' E 017°20'4 6.1
2019-Aug-20 23:16N 55°19' E 017°22'1 5.4
2019-Aug-20 23:00N 55°20' E 017°23'1 2.3
2019-Aug-20 22:31N 55°21' E 017°22'2 4.5
2019-Aug-20 22:00N 55°22' E 017°26'4 7.9
2019-Aug-20 21:31N 55°24' E 017°32'2 3.4
2019-Aug-20 20:50N 55°25' E 017°35'1 2.9
2019-Aug-20 20:28N 55°24' E 017°35'5 8.3
2019-Aug-20 19:55N 55°19' E 017°34'3 7.4
2019-Aug-20 19:31N 55°16' E 017°33'2 3.1
2019-Aug-20 18:59N 55°15' E 017°35'2 2.9
2019-Aug-20 18:16N 55°17' E 017°37'1 3.0
2019-Aug-20 17:59N 55°17' E 017°38'2 3.4
2019-Aug-20 17:30N 55°18' E 017°40'19 3.9
2019-Aug-20 12:41N 55°19' E 018°13'4 2.7
2019-Aug-20 11:09N 55°20' E 018°20'4 6.4
2019-Aug-20 10:30N 55°24' E 018°20'4 7.7
2019-Aug-20 10:00N 55°28' E 018°20'9 4.0
2019-Aug-20 07:50N 55°36' E 018°26'0 0.0
2019-Aug-20 07:26N 55°36' E 018°26'0 1.1
2019-Aug-20 07:00N 55°36' E 018°27'4 7.6
2019-Aug-20 06:31N 55°34' E 018°32'4 7.6
2019-Aug-20 06:00N 55°31' E 018°37'2 3.9
2019-Aug-20 05:25N 55°29' E 018°40'4 8.1
2019-Aug-20 04:53N 55°25' E 018°38'6 5.1
2019-Aug-20 03:42N 55°19' E 018°40'1 1.3
2019-Aug-20 03:06N 55°20' E 018°40'0 0.4
2019-Aug-20 03:00N 55°20' E 018°40'4 7.2
2019-Aug-20 02:25N 55°16' E 018°39'3 8.0
2019-Aug-20 02:00N 55°13' E 018°38'3 5.2
2019-Aug-20 01:29N 55°10' E 018°38'1 2.0
2019-Aug-20 01:00N 55°10' E 018°40'1 1.9
2019-Aug-20 00:25N 55°09' E 018°40'4 7.8
2019-Aug-19 23:56N 55°05' E 018°39'3 7.7
2019-Aug-19 23:30N 55°02' E 018°39'2 3.0
2019-Aug-19 22:59N 55°00' E 018°39'0 0.8
2019-Aug-19 22:30N 54°60' E 018°40'4 7.4
2019-Aug-19 22:01N 55°02' E 018°46'4 8.0
2019-Aug-19 21:31N 55°03' E 018°52'4 7.9
2019-Aug-19 21:01N 55°04' E 018°59'3 6.6
2019-Aug-19 20:30N 55°06' E 019°04'1 3.0
2019-Aug-19 20:01N 55°07' E 019°06'0 0.6
2019-Aug-19 19:30N 55°07' E 019°06'8 7.1
2019-Aug-19 18:21N 54°59' E 019°11'4 8.1
2019-Aug-19 17:49N 54°55' E 019°14'3 8.1
2019-Aug-19 17:31N 54°53' E 019°15'3 6.8
2019-Aug-19 17:01N 54°50' E 019°17'1 2.5
2019-Aug-19 16:31N 54°49' E 019°19'1 1.2
2019-Aug-19 16:01N 54°50' E 019°19'0 0.0
2019-Aug-19 15:31N 54°50' E 019°19'3 3.7
2019-Aug-19 14:44N 54°47' E 019°17'2 8.2
2019-Aug-19 14:31N 54°45' E 019°16'4 8.3
2019-Aug-19 14:01N 54°42' E 019°14'3 5.4
2019-Aug-19 13:31N 54°39' E 019°13'1 2.7
2019-Aug-19 13:01N 54°38' E 019°11'1 2.5
2019-Aug-19 12:31N 54°38' E 019°09'1 1.7
2019-Aug-19 12:01N 54°37' E 019°08'1 1.9
2019-Aug-19 11:31N 54°36' E 019°08'1 1.5
2019-Aug-19 11:01N 54°35' E 019°08'4 8.2
2019-Aug-19 10:31N 54°32' E 019°05'4 8.1
2019-Aug-19 10:00N 54°28' E 019°02'2 4.7
2019-Aug-19 09:31N 54°26' E 018°60'0 0.4
2019-Aug-19 09:01N 54°26' E 018°60'0 0.4
2019-Aug-19 08:31N 54°26' E 019°00'2 4.0
2019-Aug-19 08:01N 54°27' E 018°57'4 7.5
2019-Aug-19 07:31N 54°28' E 018°51'4 7.9
2019-Aug-19 07:01N 54°29' E 018°44'4 7.8
2019-Aug-19 06:31N 54°30' E 018°38'3 6.0
2019-Aug-19 06:01N 54°31' E 018°33'0 0.2
2019-Aug-19 05:25N 54°31' E 018°33'0 0.1
2019-Aug-19 04:58N 54°31' E 018°33'0 0.1
2019-Aug-19 04:29N 54°31' E 018°33'0 0.0
2019-Aug-19 03:59N 54°31' E 018°33'0 0.0
2019-Aug-19 03:28N 54°31' E 018°33'0 0.0
2019-Aug-19 02:58N 54°31' E 018°33'0 0.0
2019-Aug-19 02:28N 54°31' E 018°33'0 0.0
2019-Aug-19 01:58N 54°31' E 018°33'0 0.0
2019-Aug-19 01:28N 54°31' E 018°33'0 0.0
2019-Aug-19 01:00N 54°31' E 018°33'0 0.0
2019-Aug-19 00:30N 54°31' E 018°33'0 0.0
2019-Aug-19 00:00N 54°31' E 018°33'0 0.0
2019-Aug-18 23:30N 54°31' E 018°33'0 0.0
2019-Aug-18 23:00N 54°31' E 018°33'0 0.0
2019-Aug-18 22:29N 54°31' E 018°33'0 0.0
2019-Aug-18 21:59N 54°31' E 018°33'0 0.0
2019-Aug-18 21:29N 54°31' E 018°33'0 0.0
2019-Aug-18 20:59N 54°31' E 018°33'0 0.0
2019-Aug-18 20:25N 54°31' E 018°33'0 0.0
2019-Aug-18 19:58N 54°31' E 018°33'0 0.0
2019-Aug-18 19:25N 54°31' E 018°33'0 0.0
2019-Aug-18 18:58N 54°31' E 018°33'0 0.0
2019-Aug-18 18:28N 54°31' E 018°33'0 0.0
2019-Aug-18 18:00N 54°31' E 018°33'0 0.0
2019-Aug-18 17:30N 54°31' E 018°33'0 0.0
2019-Aug-18 17:00N 54°31' E 018°33'0 0.0
2019-Aug-18 16:30N 54°31' E 018°33'0 0.0
2019-Aug-18 15:59N 54°31' E 018°33'0 0.0
2019-Aug-18 15:29N 54°31' E 018°33'0 0.0
2019-Aug-18 14:59N 54°31' E 018°33'0 0.0
2019-Aug-18 14:29N 54°31' E 018°33'0 0.0
2019-Aug-18 13:59N 54°31' E 018°33'0 0.0
2019-Aug-18 13:28N 54°31' E 018°33'0 0.0
2019-Aug-18 12:58N 54°31' E 018°33'0 0.0
2019-Aug-18 12:28N 54°31' E 018°33'0 0.0
2019-Aug-18 11:58N 54°31' E 018°33'0 0.0
2019-Aug-18 11:28N 54°31' E 018°33'0 0.0
2019-Aug-18 11:00N 54°31' E 018°33'0 0.0
2019-Aug-18 10:30N 54°31' E 018°33'0 0.0
2019-Aug-18 10:00N 54°31' E 018°33'0 0.0
2019-Aug-18 09:30N 54°31' E 018°33'0 0.0
2019-Aug-18 08:56N 54°31' E 018°33'0 0.0
2019-Aug-18 08:29N 54°31' E 018°33'0 0.0
2019-Aug-18 07:56N 54°31' E 018°33'0 0.0
2019-Aug-18 06:59N 54°31' E 018°33'0 0.0
2019-Aug-18 06:28N 54°31' E 018°33'0 0.0
2019-Aug-18 05:58N 54°31' E 018°33'0 0.0
2019-Aug-18 05:28N 54°31' E 018°33'0 0.1
2019-Aug-18 04:55N 54°31' E 018°33'0 0.1
2019-Aug-18 04:31N 54°31' E 018°33'0 0.0
2019-Aug-18 04:00N 54°31' E 018°33'0 0.0
2019-Aug-18 03:30N 54°31' E 018°33'0 0.0
2019-Aug-18 03:00N 54°31' E 018°33'0 0.0
2019-Aug-18 02:30N 54°31' E 018°33'0 0.0
2019-Aug-18 01:59N 54°31' E 018°33'0 0.0
2019-Aug-18 01:29N 54°31' E 018°33'0 0.0
2019-Aug-18 00:59N 54°31' E 018°33'0 0.0
2019-Aug-18 00:29N 54°31' E 018°33'0 0.0
2019-Aug-17 23:59N 54°31' E 018°33'0 0.0
2019-Aug-17 23:28N 54°31' E 018°33'0 0.0
2019-Aug-17 22:58N 54°31' E 018°33'0 0.0
2019-Aug-17 22:28N 54°31' E 018°33'0 0.0
2019-Aug-17 21:58N 54°31' E 018°33'0 0.0
2019-Aug-17 21:27N 54°31' E 018°33'0 0.0
2019-Aug-17 21:00N 54°31' E 018°33'0 0.0
2019-Aug-17 20:30N 54°31' E 018°33'0 0.0
2019-Aug-17 20:00N 54°31' E 018°33'0 0.0
2019-Aug-17 19:30N 54°31' E 018°33'0 0.0
2019-Aug-17 18:59N 54°31' E 018°33'0 0.0
2019-Aug-17 18:29N 54°31' E 018°33'0 0.0
2019-Aug-17 17:29N 54°31' E 018°33'0 0.0
2019-Aug-17 16:59N 54°31' E 018°33'0 0.0
2019-Aug-17 16:28N 54°31' E 018°33'0 0.0
2019-Aug-17 15:58N 54°31' E 018°33'0 0.0
2019-Aug-17 15:28N 54°31' E 018°33'0 0.0
2019-Aug-17 14:58N 54°31' E 018°33'0 0.0
2019-Aug-17 14:30N 54°31' E 018°33'0 0.0
2019-Aug-17 14:00N 54°31' E 018°33'0 0.0
2019-Aug-17 13:30N 54°31' E 018°33'0 0.0
2019-Aug-17 13:00N 54°31' E 018°33'0 0.0
2019-Aug-17 12:30N 54°31' E 018°33'0 0.0
2019-Aug-17 11:59N 54°31' E 018°33'0 0.0
2019-Aug-17 11:29N 54°31' E 018°33'0 0.0
2019-Aug-17 10:59N 54°31' E 018°33'0 0.0
2019-Aug-17 10:29N 54°31' E 018°33'0 0.0
2019-Aug-17 09:58N 54°31' E 018°33'0 0.0
2019-Aug-17 09:28N 54°31' E 018°33'0 0.0
2019-Aug-17 08:58N 54°31' E 018°33'0 0.0
2019-Aug-17 08:28N 54°31' E 018°33'0 0.0
2019-Aug-17 07:58N 54°31' E 018°33'0 0.0
2019-Aug-17 07:30N 54°31' E 018°33'0 0.0
2019-Aug-17 07:00N 54°31' E 018°33'0 0.0
2019-Aug-17 06:30N 54°31' E 018°33'0 0.0
2019-Aug-17 06:00N 54°31' E 018°33'0 0.0
2019-Aug-17 05:30N 54°31' E 018°33'0 0.1
2019-Aug-17 04:59N 54°31' E 018°33'0 0.1
2019-Aug-17 04:29N 54°31' E 018°33'0 0.0
2019-Aug-17 03:59N 54°31' E 018°33'0 0.0
2019-Aug-17 03:29N 54°31' E 018°33'0 0.0
2019-Aug-17 02:59N 54°31' E 018°33'0 0.0
2019-Aug-17 02:28N 54°31' E 018°33'0 0.0
2019-Aug-17 01:58N 54°31' E 018°33'0 0.0
2019-Aug-17 01:28N 54°31' E 018°33'0 0.0
2019-Aug-17 00:58N 54°31' E 018°33'0 0.0
2019-Aug-17 00:30N 54°31' E 018°33'0 0.0
2019-Aug-17 00:00N 54°31' E 018°33'0 0.0
2019-Aug-16 23:30N 54°31' E 018°33'0 0.0
2019-Aug-16 23:00N 54°31' E 018°33'0 0.0
2019-Aug-16 22:30N 54°31' E 018°33'0 0.0
2019-Aug-16 21:56N 54°31' E 018°33'0 0.0
2019-Aug-16 21:29N 54°31' E 018°33'0 0.0
2019-Aug-16 20:59N 54°31' E 018°33'0 0.0
2019-Aug-16 20:29N 54°31' E 018°33'0 0.0
2019-Aug-16 19:58N 54°31' E 018°33'0 0.0
2019-Aug-16 19:28N 54°31' E 018°33'0 0.0
2019-Aug-16 18:58N 54°31' E 018°33'0 0.0
2019-Aug-16 18:28N 54°31' E 018°33'0 0.0
2019-Aug-16 17:58N 54°31' E 018°33'0 0.0
2019-Aug-16 17:30N 54°31' E 018°33'0 0.0
2019-Aug-16 17:00N 54°31' E 018°33'0 0.0
2019-Aug-16 16:30N 54°31' E 018°33'0 0.0
2019-Aug-16 16:00N 54°31' E 018°33'0 0.0
2019-Aug-16 15:30N 54°31' E 018°33'0 0.0
2019-Aug-16 14:59N 54°31' E 018°33'0 0.0
2019-Aug-16 14:29N 54°31' E 018°33'0 0.0
2019-Aug-16 13:59N 54°31' E 018°33'0 0.0
2019-Aug-16 13:29N 54°31' E 018°33'0 0.0
2019-Aug-16 12:58N 54°31' E 018°33'0 0.0
2019-Aug-16 12:28N 54°31' E 018°33'0 0.1
2019-Aug-16 11:58N 54°31' E 018°33'0 0.0
2019-Aug-16 11:22N 54°31' E 018°33'0 0.0
2019-Aug-16 10:58N 54°31' E 018°33'0 0.0
2019-Aug-16 10:30N 54°31' E 018°33'0 0.0
2019-Aug-16 10:00N 54°31' E 018°33'0 0.0
2019-Aug-16 09:30N 54°31' E 018°33'0 0.0
2019-Aug-16 09:00N 54°31' E 018°33'0 0.0
2019-Aug-16 08:29N 54°31' E 018°33'0 0.0
2019-Aug-16 07:59N 54°31' E 018°33'0 0.0
2019-Aug-16 07:29N 54°31' E 018°33'0 0.0
2019-Aug-16 06:59N 54°31' E 018°33'0 0.0
2019-Aug-16 06:29N 54°31' E 018°33'0 0.0
2019-Aug-16 05:58N 54°31' E 018°33'0 0.0
2019-Aug-16 05:28N 54°31' E 018°33'0 0.0
2019-Aug-16 04:58N 54°31' E 018°33'0 0.0
2019-Aug-16 04:28N 54°31' E 018°33'0 0.0
2019-Aug-16 03:55N 54°31' E 018°33'0 0.0
2019-Aug-16 03:30N 54°31' E 018°33'0 0.0
2019-Aug-16 03:00N 54°31' E 018°33'0 0.0
2019-Aug-16 02:30N 54°31' E 018°33'0 0.0
2019-Aug-16 02:00N 54°31' E 018°33'0 0.0
2019-Aug-16 01:29N 54°31' E 018°33'0 0.0
2019-Aug-16 00:59N 54°31' E 018°33'0 0.0
2019-Aug-16 00:29N 54°31' E 018°33'0 0.0
2019-Aug-15 23:59N 54°31' E 018°33'0 0.0
2019-Aug-15 23:29N 54°31' E 018°33'0 0.0
2019-Aug-15 22:55N 54°31' E 018°33'0 0.0
2019-Aug-15 22:28N 54°31' E 018°33'0 0.0
2019-Aug-15 21:58N 54°31' E 018°33'0 0.0
2019-Aug-15 21:28N 54°31' E 018°33'0 0.0
2019-Aug-15 20:58N 54°31' E 018°33'0 0.0
2019-Aug-15 20:30N 54°31' E 018°33'0 0.0
2019-Aug-15 20:00N 54°31' E 018°33'0 0.0
2019-Aug-15 19:30N 54°31' E 018°33'0 0.0
2019-Aug-15 19:00N 54°31' E 018°33'0 0.0
2019-Aug-15 18:29N 54°31' E 018°33'0 0.0
2019-Aug-15 17:59N 54°31' E 018°33'0 0.1
2019-Aug-15 17:29N 54°31' E 018°33'0 0.1
2019-Aug-15 16:56N 54°31' E 018°33'0 0.0
2019-Aug-15 16:29N 54°31' E 018°33'0 0.0
2019-Aug-15 15:58N 54°31' E 018°33'0 0.0
2019-Aug-15 15:28N 54°31' E 018°33'0 0.0
2019-Aug-15 14:58N 54°31' E 018°33'0 0.0
2019-Aug-15 14:28N 54°31' E 018°33'0 0.0
2019-Aug-15 14:01N 54°31' E 018°33'0 0.0
2019-Aug-15 13:30N 54°31' E 018°33'0 0.0
2019-Aug-15 13:00N 54°31' E 018°33'0 0.0
2019-Aug-15 12:30N 54°31' E 018°33'0 0.1
2019-Aug-15 12:00N 54°31' E 018°33'0 0.1
2019-Aug-15 11:29N 54°31' E 018°33'0 0.0
2019-Aug-15 10:59N 54°31' E 018°33'0 0.0
2019-Aug-15 10:29N 54°31' E 018°33'0 0.0
2019-Aug-15 09:59N 54°31' E 018°33'0 0.0
2019-Aug-15 09:29N 54°31' E 018°33'0 0.0
2019-Aug-15 08:58N 54°31' E 018°33'0 0.0
2019-Aug-15 08:28N 54°31' E 018°33'0 0.0
2019-Aug-15 07:58N 54°31' E 018°33'0 0.0
2019-Aug-15 07:28N 54°31' E 018°33'0 0.0
2019-Aug-15 07:00N 54°31' E 018°33'0 0.0
2019-Aug-15 06:30N 54°31' E 018°33'0 0.0
2019-Aug-15 06:00N 54°31' E 018°33'0 0.0
2019-Aug-15 05:30N 54°31' E 018°33'0 0.1
2019-Aug-15 05:00N 54°31' E 018°33'0 0.1
2019-Aug-15 04:29N 54°31' E 018°33'0 0.0
2019-Aug-15 03:59N 54°31' E 018°33'0 0.0
2019-Aug-15 03:29N 54°31' E 018°33'0 0.1
2019-Aug-15 02:59N 54°31' E 018°33'0 0.1
2019-Aug-15 02:29N 54°31' E 018°33'0 0.0
2019-Aug-15 01:58N 54°31' E 018°33'0 0.0
2019-Aug-15 01:28N 54°31' E 018°33'0 0.0
2019-Aug-15 00:58N 54°31' E 018°33'0 0.0
2019-Aug-15 00:28N 54°31' E 018°33'0 0.0
2019-Aug-15 00:00N 54°31' E 018°33'0 0.0
2019-Aug-14 23:30N 54°31' E 018°33'0 0.0
2019-Aug-14 23:00N 54°31' E 018°33'0 0.0
2019-Aug-14 22:30N 54°31' E 018°33'  
Track history (hours):
 
Tides and Currents Weather Stations Pressure Air Temp Water Temp Dewpoint Dewpoint Depression Visibility Wind Speed Wind Dir Waves Ship Positions

Oceanographic research ship Baltica (Poland)

Detailed information on ship capabilities available from University of Delaware's Ocean Information Center.

Last reported at 2019-Aug-24 22:00 UTC. Time now 2019-Aug-24 22:15 UTC.
Position N 54°47' E 015°21'.

Length 41 m; beam 9 m.

Type: Fishing. MMSI: 261061000.

Date/timePositionNaut miles runAvg speedWind from/ knotsBaromVisibWave heightAir tempDewpointWater temp
2019-Aug-24 22:00N 54°47' E 015°21'0 0.6
2019-Aug-24 21:30N 54°47' E 015°21'0 0.5
2019-Aug-24 21:01N 54°47' E 015°22'2 4.0
2019-Aug-24 20:31N 54°48' E 015°19'2 3.1
2019-Aug-24 20:00N 54°48' E 015°16'0 0.8
2019-Aug-24 19:30N 54°48' E 015°17'0 0.8
2019-Aug-24 19:00N 54°48' E 015°17'0 0.7
2019-Aug-24 18:30N 54°48' E 015°18'2 3.0
2019-Aug-24 18:00N 54°48' E 015°15'1 1.0
2019-Aug-24 17:30N 54°48' E 015°15'3 5.9
2019-Aug-24 17:00N 54°47' E 015°10'4 7.8
2019-Aug-24 16:30N 54°46' E 015°03'2 3.8
2019-Aug-24 16:00N 54°47' E 015°00'1 1.1
2019-Aug-24 15:30N 54°46' E 015°00'4 8.2
2019-Aug-24 15:01N 54°43' E 015°05'4 8.2
2019-Aug-24 14:29N 54°40' E 015°10'4 4.6
2019-Aug-24 13:41N 54°38' E 015°15'0 1.1
2019-Aug-24 13:31N 54°37' E 015°15'3 5.2
2019-Aug-24 13:01N 54°37' E 015°19'4 8.3
2019-Aug-24 12:30N 54°37' E 015°27'2 3.5
2019-Aug-24 12:00N 54°37' E 015°30'1 2.7
2019-Aug-24 11:30N 54°37' E 015°32'4 8.3
2019-Aug-24 11:01N 54°37' E 015°39'3 5.4
2019-Aug-24 10:30N 54°37' E 015°44'1 1.8
2019-Aug-24 10:01N 54°38' E 015°45'4 8.3
2019-Aug-24 09:30N 54°41' E 015°50'4 8.6
2019-Aug-24 09:00N 54°44' E 015°54'4 7.4
2019-Aug-24 08:30N 54°47' E 015°58'1 1.3
2019-Aug-24 07:53N 54°48' E 015°59'4 7.9
2019-Aug-24 07:26N 54°48' E 015°53'4 6.1
2019-Aug-24 06:45N 54°48' E 015°46'1 2.9
2019-Aug-24 06:30N 54°48' E 015°45'4 4.8
2019-Aug-24 05:40N 54°47' E 015°38'2 8.1
2019-Aug-24 05:25N 54°48' E 015°34'8 3.8
2019-Aug-24 03:16N 54°55' E 015°30'1 3.0
2019-Aug-24 03:00N 54°56' E 015°30'2 3.0
2019-Aug-24 02:28N 54°58' E 015°30'1 1.1
2019-Aug-24 01:59N 54°58' E 015°31'4 7.9
2019-Aug-24 01:30N 54°57' E 015°38'3 6.3
2019-Aug-24 01:00N 54°57' E 015°43'1 2.1
2019-Aug-24 00:28N 54°57' E 015°45'3 5.4
2019-Aug-23 23:59N 54°57' E 015°50'5 8.1
2019-Aug-23 23:26N 54°57' E 015°57'1 3.2
2019-Aug-23 23:00N 54°57' E 015°60'2 2.5
2019-Aug-23 22:20N 54°57' E 016°03'7 8.3
2019-Aug-23 21:33N 54°57' E 016°14'1 2.2
2019-Aug-23 20:59N 54°58' E 016°15'6 8.5
2019-Aug-23 20:17N 55°04' E 016°15'2 7.2
2019-Aug-23 20:00N 55°06' E 016°15'1 3.0
2019-Aug-23 19:31N 55°07' E 016°15'2 3.5
2019-Aug-23 19:00N 55°07' E 016°12'4 8.2
2019-Aug-23 18:30N 55°07' E 016°05'2 3.8
2019-Aug-23 18:00N 55°08' E 016°02'1 1.7
2019-Aug-23 17:30N 55°07' E 016°00'1 2.3
2019-Aug-23 17:00N 55°07' E 015°58'1 1.1
2019-Aug-23 16:30N 55°08' E 015°57'2 4.3
2019-Aug-23 16:00N 55°08' E 015°54'4 7.1
2019-Aug-23 15:30N 55°09' E 015°48'1 2.9
2019-Aug-23 15:00N 55°08' E 015°46'1 1.2
2019-Aug-23 14:27N 55°08' E 015°44'3 6.3
2019-Aug-23 14:00N 55°09' E 015°40'3 6.4
2019-Aug-23 13:30N 55°09' E 015°34'2 4.1
2019-Aug-23 13:00N 55°08' E 015°31'0 0.6
2019-Aug-23 12:30N 55°08' E 015°31'0 0.1
2019-Aug-23 12:00N 55°08' E 015°31'3 6.3
2019-Aug-23 11:30N 55°11' E 015°32'4 7.3
2019-Aug-23 11:00N 55°14' E 015°33'3 5.1
2019-Aug-23 10:30N 55°17' E 015°34'1 2.0
2019-Aug-23 10:00N 55°18' E 015°34'2 3.3
2019-Aug-23 09:30N 55°17' E 015°36'4 7.5
2019-Aug-23 09:00N 55°17' E 015°43'1 3.0
2019-Aug-23 08:30N 55°17' E 015°45'1 1.3
2019-Aug-23 08:01N 55°18' E 015°45'4 7.1
2019-Aug-23 07:30N 55°16' E 015°50'4 7.6
2019-Aug-23 07:00N 55°14' E 015°56'2 3.3
2019-Aug-23 06:25N 55°13' E 015°59'1 2.0
2019-Aug-23 05:59N 55°14' E 015°59'0 0.1
2019-Aug-23 05:26N 55°14' E 015°59'0 0.1
2019-Aug-23 05:00N 55°14' E 015°59'2 4.5
2019-Aug-23 04:30N 55°16' E 016°01'1 3.0
2019-Aug-23 04:00N 55°17' E 016°01'0 0.8
2019-Aug-23 03:30N 55°18' E 016°00'2 4.8
2019-Aug-23 03:00N 55°20' E 016°00'4 7.6
2019-Aug-23 02:30N 55°24' E 016°01'3 5.7
2019-Aug-23 02:00N 55°27' E 016°01'1 2.6
2019-Aug-23 01:30N 55°28' E 015°60'1 2.5
2019-Aug-23 01:01N 55°28' E 015°58'4 8.0
2019-Aug-23 00:30N 55°28' E 015°51'2 4.5
2019-Aug-23 00:01N 55°28' E 015°47'1 2.0
2019-Aug-22 23:31N 55°28' E 015°45'2 4.9
2019-Aug-22 23:00N 55°28' E 015°41'4 7.7
2019-Aug-22 22:31N 55°28' E 015°34'2 3.8
2019-Aug-22 22:01N 55°28' E 015°31'0 0.9
2019-Aug-22 21:30N 55°28' E 015°30'3 6.2
2019-Aug-22 21:01N 55°29' E 015°25'4 8.2
2019-Aug-22 20:31N 55°31' E 015°19'2 4.3
2019-Aug-22 20:00N 55°32' E 015°16'1 1.3
2019-Aug-22 19:31N 55°32' E 015°15'4 8.3
2019-Aug-22 19:00N 55°32' E 015°07'4 8.3
2019-Aug-22 18:30N 55°31' E 014°60'3 5.5
2019-Aug-22 18:00N 55°31' E 014°55'1 1.9
2019-Aug-22 17:31N 55°30' E 014°56'0 0.8
2019-Aug-22 17:01N 55°29' E 014°56'4 7.2
2019-Aug-22 16:31N 55°30' E 014°50'2 4.8
2019-Aug-22 16:01N 55°29' E 014°46'1 2.1
2019-Aug-22 15:29N 55°28' E 014°45'5 6.1
2019-Aug-22 14:36N 55°33' E 014°45'1 7.5
2019-Aug-22 14:29N 55°34' E 014°44'2 4.1
2019-Aug-22 14:00N 55°36' E 014°44'2 2.4
2019-Aug-22 13:09N 55°38' E 014°45'0 0.9
2019-Aug-22 12:56N 55°38' E 014°45'3 6.3
2019-Aug-22 12:25N 55°37' E 014°51'4 7.6
2019-Aug-22 11:54N 55°36' E 014°58'2 1.9
2019-Aug-22 10:54N 55°38' E 015°00'3 7.2
2019-Aug-22 10:31N 55°37' E 015°05'4 7.7
2019-Aug-22 10:01N 55°37' E 015°12'2 3.8
2019-Aug-22 09:31N 55°37' E 015°15'1 1.0
2019-Aug-22 09:00N 55°37' E 015°15'4 7.7
2019-Aug-22 08:31N 55°37' E 015°22'4 7.8
2019-Aug-22 08:01N 55°37' E 015°29'1 1.7
2019-Aug-22 07:27N 55°37' E 015°30'3 6.0
2019-Aug-22 07:01N 55°37' E 015°35'4 7.9
2019-Aug-22 06:30N 55°37' E 015°42'2 4.1
2019-Aug-22 06:00N 55°37' E 015°45'0 0.6
2019-Aug-22 05:31N 55°38' E 015°45'4 7.2
2019-Aug-22 05:00N 55°37' E 015°51'3 6.5
2019-Aug-22 04:31N 55°37' E 015°57'2 3.0
2019-Aug-22 04:00N 55°37' E 015°60'0 0.5
2019-Aug-22 03:31N 55°38' E 016°00'4 7.3
2019-Aug-22 03:01N 55°41' E 015°59'4 7.8
2019-Aug-22 02:31N 55°45' E 015°59'2 4.0
2019-Aug-22 02:00N 55°47' E 015°59'1 1.4
2019-Aug-22 01:30N 55°48' E 016°00'3 5.6
2019-Aug-22 01:01N 55°47' E 016°05'4 7.6
2019-Aug-22 00:30N 55°47' E 016°12'2 3.8
2019-Aug-22 00:01N 55°47' E 016°15'0 0.3
2019-Aug-21 23:31N 55°48' E 016°15'1 2.6
2019-Aug-21 23:00N 55°47' E 016°18'4 7.7
2019-Aug-21 22:31N 55°47' E 016°24'3 5.2
2019-Aug-21 22:00N 55°47' E 016°29'1 1.2
2019-Aug-21 21:30N 55°47' E 016°30'4 8.1
2019-Aug-21 21:00N 55°43' E 016°30'4 8.1
2019-Aug-21 20:30N 55°39' E 016°30'5 3.8
2019-Aug-21 19:15N 55°37' E 016°22'3 8.0
2019-Aug-21 18:55N 55°37' E 016°18'1 3.1
2019-Aug-21 18:30N 55°37' E 016°16'1 2.7
2019-Aug-21 17:58N 55°36' E 016°15'4 7.7
2019-Aug-21 17:27N 55°32' E 016°15'38 2.3
2019-Aug-21 01:00N 55°14' E 017°15'2 4.8
2019-Aug-21 00:31N 55°14' E 017°19'1 1.6
2019-Aug-21 00:00N 55°14' E 017°20'4 6.1
2019-Aug-20 23:16N 55°19' E 017°22'1 5.4
2019-Aug-20 23:00N 55°20' E 017°23'1 2.3
2019-Aug-20 22:31N 55°21' E 017°22'2 4.5
2019-Aug-20 22:00N 55°22' E 017°26'4 7.9
2019-Aug-20 21:31N 55°24' E 017°32'2 3.4
2019-Aug-20 20:50N 55°25' E 017°35'1 2.9
2019-Aug-20 20:28N 55°24' E 017°35'5 8.3
2019-Aug-20 19:55N 55°19' E 017°34'3 7.4
2019-Aug-20 19:31N 55°16' E 017°33'2 3.1
2019-Aug-20 18:59N 55°15' E 017°35'2 2.9
2019-Aug-20 18:16N 55°17' E 017°37'1 3.0
2019-Aug-20 17:59N 55°17' E 017°38'2 3.4
2019-Aug-20 17:30N 55°18' E 017°40'19 3.9
2019-Aug-20 12:41N 55°19' E 018°13'4 2.7
2019-Aug-20 11:09N 55°20' E 018°20'4 6.4
2019-Aug-20 10:30N 55°24' E 018°20'4 7.7
2019-Aug-20 10:00N 55°28' E 018°20'9 4.0
2019-Aug-20 07:50N 55°36' E 018°26'0 0.0
2019-Aug-20 07:26N 55°36' E 018°26'0 1.1
2019-Aug-20 07:00N 55°36' E 018°27'4 7.6
2019-Aug-20 06:31N 55°34' E 018°32'4 7.6
2019-Aug-20 06:00N 55°31' E 018°37'2 3.9
2019-Aug-20 05:25N 55°29' E 018°40'4 8.1
2019-Aug-20 04:53N 55°25' E 018°38'6 5.1
2019-Aug-20 03:42N 55°19' E 018°40'1 1.3
2019-Aug-20 03:06N 55°20' E 018°40'0 0.4
2019-Aug-20 03:00N 55°20' E 018°40'4 7.2
2019-Aug-20 02:25N 55°16' E 018°39'3 8.0
2019-Aug-20 02:00N 55°13' E 018°38'3 5.2
2019-Aug-20 01:29N 55°10' E 018°38'1 2.0
2019-Aug-20 01:00N 55°10' E 018°40'1 1.9
2019-Aug-20 00:25N 55°09' E 018°40'4 7.8
2019-Aug-19 23:56N 55°05' E 018°39'3 7.7
2019-Aug-19 23:30N 55°02' E 018°39'2 3.0
2019-Aug-19 22:59N 55°00' E 018°39'0 0.8
2019-Aug-19 22:30N 54°60' E 018°40'4 7.4
2019-Aug-19 22:01N 55°02' E 018°46'4 8.0
2019-Aug-19 21:31N 55°03' E 018°52'4 7.9
2019-Aug-19 21:01N 55°04' E 018°59'3 6.6
2019-Aug-19 20:30N 55°06' E 019°04'1 3.0
2019-Aug-19 20:01N 55°07' E 019°06'0 0.6
2019-Aug-19 19:30N 55°07' E 019°06'8 7.1
2019-Aug-19 18:21N 54°59' E 019°11'4 8.1
2019-Aug-19 17:49N 54°55' E 019°14'3 8.1
2019-Aug-19 17:31N 54°53' E 019°15'3 6.8
2019-Aug-19 17:01N 54°50' E 019°17'1 2.5
2019-Aug-19 16:31N 54°49' E 019°19'1 1.2
2019-Aug-19 16:01N 54°50' E 019°19'0 0.0
2019-Aug-19 15:31N 54°50' E 019°19'3 3.7
2019-Aug-19 14:44N 54°47' E 019°17'2 8.2
2019-Aug-19 14:31N 54°45' E 019°16'4 8.3
2019-Aug-19 14:01N 54°42' E 019°14'3 5.4
2019-Aug-19 13:31N 54°39' E 019°13'1 2.7
2019-Aug-19 13:01N 54°38' E 019°11'1 2.5
2019-Aug-19 12:31N 54°38' E 019°09'1 1.7
2019-Aug-19 12:01N 54°37' E 019°08'1 1.9
2019-Aug-19 11:31N 54°36' E 019°08'1 1.5
2019-Aug-19 11:01N 54°35' E 019°08'4 8.2
2019-Aug-19 10:31N 54°32' E 019°05'4 8.1
2019-Aug-19 10:00N 54°28' E 019°02'2 4.7
2019-Aug-19 09:31N 54°26' E 018°60'0 0.4
2019-Aug-19 09:01N 54°26' E 018°60'0 0.4
2019-Aug-19 08:31N 54°26' E 019°00'2 4.0
2019-Aug-19 08:01N 54°27' E 018°57'4 7.5
2019-Aug-19 07:31N 54°28' E 018°51'4 7.9
2019-Aug-19 07:01N 54°29' E 018°44'4 7.8
2019-Aug-19 06:31N 54°30' E 018°38'3 6.0
2019-Aug-19 06:01N 54°31' E 018°33'0 0.2
2019-Aug-19 05:25N 54°31' E 018°33'0 0.1
2019-Aug-19 04:58N 54°31' E 018°33'0 0.1
2019-Aug-19 04:29N 54°31' E 018°33'0 0.0
2019-Aug-19 03:59N 54°31' E 018°33'0 0.0
2019-Aug-19 03:28N 54°31' E 018°33'0 0.0
2019-Aug-19 02:58N 54°31' E 018°33'0 0.0
2019-Aug-19 02:28N 54°31' E 018°33'0 0.0
2019-Aug-19 01:58N 54°31' E 018°33'0 0.0
2019-Aug-19 01:28N 54°31' E 018°33'0 0.0
2019-Aug-19 01:00N 54°31' E 018°33'0 0.0
2019-Aug-19 00:30N 54°31' E 018°33'0 0.0
2019-Aug-19 00:00N 54°31' E 018°33'0 0.0
2019-Aug-18 23:30N 54°31' E 018°33'0 0.0
2019-Aug-18 23:00N 54°31' E 018°33'0 0.0
2019-Aug-18 22:29N 54°31' E 018°33'0 0.0
2019-Aug-18 21:59N 54°31' E 018°33'0 0.0
2019-Aug-18 21:29N 54°31' E 018°33'0 0.0
2019-Aug-18 20:59N 54°31' E 018°33'0 0.0
2019-Aug-18 20:25N 54°31' E 018°33'0 0.0
2019-Aug-18 19:58N 54°31' E 018°33'0 0.0
2019-Aug-18 19:25N 54°31' E 018°33'0 0.0
2019-Aug-18 18:58N 54°31' E 018°33'0 0.0
2019-Aug-18 18:28N 54°31' E 018°33'0 0.0
2019-Aug-18 18:00N 54°31' E 018°33'0 0.0
2019-Aug-18 17:30N 54°31' E 018°33'0 0.0
2019-Aug-18 17:00N 54°31' E 018°33'0 0.0
2019-Aug-18 16:30N 54°31' E 018°33'0 0.0
2019-Aug-18 15:59N 54°31' E 018°33'0 0.0
2019-Aug-18 15:29N 54°31' E 018°33'0 0.0
2019-Aug-18 14:59N 54°31' E 018°33'0 0.0
2019-Aug-18 14:29N 54°31' E 018°33'0 0.0
2019-Aug-18 13:59N 54°31' E 018°33'0 0.0
2019-Aug-18 13:28N 54°31' E 018°33'0 0.0
2019-Aug-18 12:58N 54°31' E 018°33'0 0.0
2019-Aug-18 12:28N 54°31' E 018°33'0 0.0
2019-Aug-18 11:58N 54°31' E 018°33'0 0.0
2019-Aug-18 11:28N 54°31' E 018°33'0 0.0
2019-Aug-18 11:00N 54°31' E 018°33'0 0.0
2019-Aug-18 10:30N 54°31' E 018°33'0 0.0
2019-Aug-18 10:00N 54°31' E 018°33'0 0.0
2019-Aug-18 09:30N 54°31' E 018°33'0 0.0
2019-Aug-18 08:56N 54°31' E 018°33'0 0.0
2019-Aug-18 08:29N 54°31' E 018°33'0 0.0
2019-Aug-18 07:56N 54°31' E 018°33'0 0.0
2019-Aug-18 06:59N 54°31' E 018°33'0 0.0
2019-Aug-18 06:28N 54°31' E 018°33'0 0.0
2019-Aug-18 05:58N 54°31' E 018°33'0 0.0
2019-Aug-18 05:28N 54°31' E 018°33'0 0.1
2019-Aug-18 04:55N 54°31' E 018°33'0 0.1
2019-Aug-18 04:31N 54°31' E 018°33'0 0.0
2019-Aug-18 04:00N 54°31' E 018°33'0 0.0
2019-Aug-18 03:30N 54°31' E 018°33'0 0.0
2019-Aug-18 03:00N 54°31' E 018°33'0 0.0
2019-Aug-18 02:30N 54°31' E 018°33'0 0.0
2019-Aug-18 01:59N 54°31' E 018°33'0 0.0
2019-Aug-18 01:29N 54°31' E 018°33'0 0.0
2019-Aug-18 00:59N 54°31' E 018°33'0 0.0
2019-Aug-18 00:29N 54°31' E 018°33'0 0.0
2019-Aug-17 23:59N 54°31' E 018°33'0 0.0
2019-Aug-17 23:28N 54°31' E 018°33'0 0.0
2019-Aug-17 22:58N 54°31' E 018°33'0 0.0
2019-Aug-17 22:28N 54°31' E 018°33'0 0.0
2019-Aug-17 21:58N 54°31' E 018°33'0 0.0
2019-Aug-17 21:27N 54°31' E 018°33'0 0.0
2019-Aug-17 21:00N 54°31' E 018°33'0 0.0
2019-Aug-17 20:30N 54°31' E 018°33'0 0.0
2019-Aug-17 20:00N 54°31' E 018°33'0 0.0
2019-Aug-17 19:30N 54°31' E 018°33'0 0.0
2019-Aug-17 18:59N 54°31' E 018°33'0 0.0
2019-Aug-17 18:29N 54°31' E 018°33'0 0.0
2019-Aug-17 17:29N 54°31' E 018°33'0 0.0
2019-Aug-17 16:59N 54°31' E 018°33'0 0.0
2019-Aug-17 16:28N 54°31' E 018°33'0 0.0
2019-Aug-17 15:58N 54°31' E 018°33'0 0.0
2019-Aug-17 15:28N 54°31' E 018°33'0 0.0
2019-Aug-17 14:58N 54°31' E 018°33'0 0.0
2019-Aug-17 14:30N 54°31' E 018°33'0 0.0
2019-Aug-17 14:00N 54°31' E 018°33'0 0.0
2019-Aug-17 13:30N 54°31' E 018°33'0 0.0
2019-Aug-17 13:00N 54°31' E 018°33'0 0.0
2019-Aug-17 12:30N 54°31' E 018°33'0 0.0
2019-Aug-17 11:59N 54°31' E 018°33'0 0.0
2019-Aug-17 11:29N 54°31' E 018°33'0 0.0
2019-Aug-17 10:59N 54°31' E 018°33'0 0.0
2019-Aug-17 10:29N 54°31' E 018°33'0 0.0
2019-Aug-17 09:58N 54°31' E 018°33'0 0.0
2019-Aug-17 09:28N 54°31' E 018°33'0 0.0
2019-Aug-17 08:58N 54°31' E 018°33'0 0.0
2019-Aug-17 08:28N 54°31' E 018°33'0 0.0
2019-Aug-17 07:58N 54°31' E 018°33'0 0.0
2019-Aug-17 07:30N 54°31' E 018°33'0 0.0
2019-Aug-17 07:00N 54°31' E 018°33'0 0.0
2019-Aug-17 06:30N 54°31' E 018°33'0 0.0
2019-Aug-17 06:00N 54°31' E 018°33'0 0.0
2019-Aug-17 05:30N 54°31' E 018°33'0 0.1
2019-Aug-17 04:59N 54°31' E 018°33'0 0.1
2019-Aug-17 04:29N 54°31' E 018°33'0 0.0
2019-Aug-17 03:59N 54°31' E 018°33'0 0.0
2019-Aug-17 03:29N 54°31' E 018°33'0 0.0
2019-Aug-17 02:59N 54°31' E 018°33'0 0.0
2019-Aug-17 02:28N 54°31' E 018°33'0 0.0
2019-Aug-17 01:58N 54°31' E 018°33'0 0.0
2019-Aug-17 01:28N 54°31' E 018°33'0 0.0
2019-Aug-17 00:58N 54°31' E 018°33'0 0.0
2019-Aug-17 00:30N 54°31' E 018°33'0 0.0
2019-Aug-17 00:00N 54°31' E 018°33'0 0.0
2019-Aug-16 23:30N 54°31' E 018°33'0 0.0
2019-Aug-16 23:00N 54°31' E 018°33'0 0.0
2019-Aug-16 22:30N 54°31' E 018°33'0 0.0
2019-Aug-16 21:56N 54°31' E 018°33'0 0.0
2019-Aug-16 21:29N 54°31' E 018°33'0 0.0
2019-Aug-16 20:59N 54°31' E 018°33'0 0.0
2019-Aug-16 20:29N 54°31' E 018°33'0 0.0
2019-Aug-16 19:58N 54°31' E 018°33'0 0.0
2019-Aug-16 19:28N 54°31' E 018°33'0 0.0
2019-Aug-16 18:58N 54°31' E 018°33'0 0.0
2019-Aug-16 18:28N 54°31' E 018°33'0 0.0
2019-Aug-16 17:58N 54°31' E 018°33'0 0.0
2019-Aug-16 17:30N 54°31' E 018°33'0 0.0
2019-Aug-16 17:00N 54°31' E 018°33'0 0.0
2019-Aug-16 16:30N 54°31' E 018°33'0 0.0
2019-Aug-16 16:00N 54°31' E 018°33'0 0.0
2019-Aug-16 15:30N 54°31' E 018°33'0 0.0
2019-Aug-16 14:59N 54°31' E 018°33'0 0.0
2019-Aug-16 14:29N 54°31' E 018°33'0 0.0
2019-Aug-16 13:59N 54°31' E 018°33'0 0.0
2019-Aug-16 13:29N 54°31' E 018°33'0 0.0
2019-Aug-16 12:58N 54°31' E 018°33'0 0.0
2019-Aug-16 12:28N 54°31' E 018°33'0 0.1
2019-Aug-16 11:58N 54°31' E 018°33'0 0.0
2019-Aug-16 11:22N 54°31' E 018°33'0 0.0
2019-Aug-16 10:58N 54°31' E 018°33'0 0.0
2019-Aug-16 10:30N 54°31' E 018°33'0 0.0
2019-Aug-16 10:00N 54°31' E 018°33'0 0.0
2019-Aug-16 09:30N 54°31' E 018°33'0 0.0
2019-Aug-16 09:00N 54°31' E 018°33'0 0.0
2019-Aug-16 08:29N 54°31' E 018°33'0 0.0
2019-Aug-16 07:59N 54°31' E 018°33'0 0.0
2019-Aug-16 07:29N 54°31' E 018°33'0 0.0
2019-Aug-16 06:59N 54°31' E 018°33'0 0.0
2019-Aug-16 06:29N 54°31' E 018°33'0 0.0
2019-Aug-16 05:58N 54°31' E 018°33'0 0.0
2019-Aug-16 05:28N 54°31' E 018°33'0 0.0
2019-Aug-16 04:58N 54°31' E 018°33'0 0.0
2019-Aug-16 04:28N 54°31' E 018°33'0 0.0
2019-Aug-16 03:55N 54°31' E 018°33'0 0.0
2019-Aug-16 03:30N 54°31' E 018°33'0 0.0
2019-Aug-16 03:00N 54°31' E 018°33'0 0.0
2019-Aug-16 02:30N 54°31' E 018°33'0 0.0
2019-Aug-16 02:00N 54°31' E 018°33'0 0.0
2019-Aug-16 01:29N 54°31' E 018°33'0 0.0
2019-Aug-16 00:59N 54°31' E 018°33'0 0.0
2019-Aug-16 00:29N 54°31' E 018°33'0 0.0
2019-Aug-15 23:59N 54°31' E 018°33'0 0.0
2019-Aug-15 23:29N 54°31' E 018°33'0 0.0
2019-Aug-15 22:55N 54°31' E 018°33'0 0.0
2019-Aug-15 22:28N 54°31' E 018°33'0 0.0
2019-Aug-15 21:58N 54°31' E 018°33'0 0.0
2019-Aug-15 21:28N 54°31' E 018°33'0 0.0
2019-Aug-15 20:58N 54°31' E 018°33'0 0.0
2019-Aug-15 20:30N 54°31' E 018°33'0 0.0
2019-Aug-15 20:00N 54°31' E 018°33'0 0.0
2019-Aug-15 19:30N 54°31' E 018°33'0 0.0
2019-Aug-15 19:00N 54°31' E 018°33'0 0.0
2019-Aug-15 18:29N 54°31' E 018°33'0 0.0
2019-Aug-15 17:59N 54°31' E 018°33'0 0.1
2019-Aug-15 17:29N 54°31' E 018°33'0 0.1
2019-Aug-15 16:56N 54°31' E 018°33'0 0.0
2019-Aug-15 16:29N 54°31' E 018°33'0 0.0
2019-Aug-15 15:58N 54°31' E 018°33'0 0.0
2019-Aug-15 15:28N 54°31' E 018°33'0 0.0
2019-Aug-15 14:58N 54°31' E 018°33'0 0.0
2019-Aug-15 14:28N 54°31' E 018°33'0 0.0
2019-Aug-15 14:01N 54°31' E 018°33'0 0.0
2019-Aug-15 13:30N 54°31' E 018°33'0 0.0
2019-Aug-15 13:00N 54°31' E 018°33'0 0.0
2019-Aug-15 12:30N 54°31' E 018°33'0 0.1
2019-Aug-15 12:00N 54°31' E 018°33'0 0.1
2019-Aug-15 11:29N 54°31' E 018°33'0 0.0
2019-Aug-15 10:59N 54°31' E 018°33'0 0.0
2019-Aug-15 10:29N 54°31' E 018°33'0 0.0
2019-Aug-15 09:59N 54°31' E 018°33'0 0.0
2019-Aug-15 09:29N 54°31' E 018°33'0 0.0
2019-Aug-15 08:58N 54°31' E 018°33'0 0.0
2019-Aug-15 08:28N 54°31' E 018°33'0 0.0
2019-Aug-15 07:58N 54°31' E 018°33'0 0.0
2019-Aug-15 07:28N 54°31' E 018°33'0 0.0
2019-Aug-15 07:00N 54°31' E 018°33'0 0.0
2019-Aug-15 06:30N 54°31' E 018°33'0 0.0
2019-Aug-15 06:00N 54°31' E 018°33'0 0.0
2019-Aug-15 05:30N 54°31' E 018°33'0 0.1
2019-Aug-15 05:00N 54°31' E 018°33'0 0.1
2019-Aug-15 04:29N 54°31' E 018°33'0 0.0
2019-Aug-15 03:59N 54°31' E 018°33'0 0.0
2019-Aug-15 03:29N 54°31' E 018°33'0 0.1
2019-Aug-15 02:59N 54°31' E 018°33'0 0.1
2019-Aug-15 02:29N 54°31' E 018°33'0 0.0
2019-Aug-15 01:58N 54°31' E 018°33'0 0.0
2019-Aug-15 01:28N 54°31' E 018°33'0 0.0
2019-Aug-15 00:58N 54°31' E 018°33'0 0.0
2019-Aug-15 00:28N 54°31' E 018°33'0 0.0
2019-Aug-15 00:00N 54°31' E 018°33'0 0.0
2019-Aug-14 23:30N 54°31' E 018°33'0 0.0
2019-Aug-14 23:00N 54°31' E 018°33'0 0.0
2019-Aug-14 22:30N 54°31' E 018°33'  

Dump ship's entire track history